sensor_id;sensor_type;location;lat;lon;timestamp;pressure;altitude;pressure_sealevel;temperature;humidity
6599;BME280;3335;43.198;27.918;2022-08-02T00:02:22;152743.50;;;22.03;100.00
6599;BME280;3335;43.198;27.918;2022-08-02T00:04:49;152743.50;;;22.03;100.00
6599;BME280;3335;43.198;27.918;2022-08-02T00:07:16;152751.03;;;22.06;100.00
6599;BME280;3335;43.198;27.918;2022-08-02T00:09:45;152761.09;;;22.10;100.00
6599;BME280;3335;43.198;27.918;2022-08-02T00:12:12;152782.53;;;22.18;100.00
6599;BME280;3335;43.198;27.918;2022-08-02T00:14:39;152766.16;;;22.12;100.00
6599;BME280;3335;43.198;27.918;2022-08-02T00:17:06;152839.19;;;22.41;100.00
6599;BME280;3335;43.198;27.918;2022-08-02T00:19:33;152824.06;;;22.35;100.00
6599;BME280;3335;43.198;27.918;2022-08-02T00:22:00;152849.28;;;22.45;100.00
6599;BME280;3335;43.198;27.918;2022-08-02T00:24:27;152861.88;;;22.50;100.00
6599;BME280;3335;43.198;27.918;2022-08-02T00:26:55;152879.47;;;22.57;100.00
6599;BME280;3335;43.198;27.918;2022-08-02T00:29:22;152899.66;;;22.65;100.00
6599;BME280;3335;43.198;27.918;2022-08-02T00:31:49;152937.50;;;22.81;100.00
6599;BME280;3335;43.198;27.918;2022-08-02T00:34:16;152952.59;;;22.87;100.00
6599;BME280;3335;43.198;27.918;2022-08-02T00:36:43;152972.78;;;22.95;100.00
6599;BME280;3335;43.198;27.918;2022-08-02T00:39:10;152986.59;;;23.00;100.00
6599;BME280;3335;43.198;27.918;2022-08-02T00:41:44;153001.72;;;23.06;100.00
6599;BME280;3335;43.198;27.918;2022-08-02T00:44:14;152990.41;;;23.02;100.00
6599;BME280;3335;43.198;27.918;2022-08-02T00:46:41;153025.69;;;23.16;100.00
6599;BME280;3335;43.198;27.918;2022-08-02T00:49:08;153023.16;;;23.15;100.00
6599;BME280;3335;43.198;27.918;2022-08-02T00:51:35;152985.34;;;23.00;100.00
6599;BME280;3335;43.198;27.918;2022-08-02T00:54:02;153016.88;;;23.13;100.00
6599;BME280;3335;43.198;27.918;2022-08-02T00:56:29;153013.06;;;23.11;100.00
6599;BME280;3335;43.198;27.918;2022-08-02T00:58:56;153037.03;;;23.21;100.00
6599;BME280;3335;43.198;27.918;2022-08-02T01:01:24;153040.81;;;23.22;100.00
6599;BME280;3335;43.198;27.918;2022-08-02T01:04:05;152999.22;;;23.05;100.00
6599;BME280;3335;43.198;27.918;2022-08-02T01:06:32;153018.13;;;23.13;100.00
6599;BME280;3335;43.198;27.918;2022-08-02T01:08:59;153025.69;;;23.16;100.00
6599;BME280;3335;43.198;27.918;2022-08-02T01:11:27;153047.09;;;23.25;100.00
6599;BME280;3335;43.198;27.918;2022-08-02T01:13:56;153038.28;;;23.21;100.00
6599;BME280;3335;43.198;27.918;2022-08-02T01:16:27;153035.75;;;23.20;100.00
6599;BME280;3335;43.198;27.918;2022-08-02T01:19:00;153050.88;;;23.26;100.00
6599;BME280;3335;43.198;27.918;2022-08-02T01:21:37;153038.28;;;23.21;100.00
6599;BME280;3335;43.198;27.918;2022-08-02T01:24:18;153010.53;;;23.10;100.00
6599;BME280;3335;43.198;27.918;2022-08-02T01:26:51;153003.00;;;23.07;100.00
6599;BME280;3335;43.198;27.918;2022-08-02T01:29:24;153003.00;;;23.07;100.00
6599;BME280;3335;43.198;27.918;2022-08-02T01:31:56;153010.53;;;23.10;100.00
6599;BME280;3335;43.198;27.918;2022-08-02T01:34:31;153020.66;;;23.14;100.00
6599;BME280;3335;43.198;27.918;2022-08-02T01:37:02;153004.25;;;23.07;100.00
6599;BME280;3335;43.198;27.918;2022-08-02T01:39:33;152984.13;;;22.99;100.00
6599;BME280;3335;43.198;27.918;2022-08-02T01:42:02;152982.84;;;22.99;100.00
6599;BME280;3335;43.198;27.918;2022-08-02T01:44:34;152975.28;;;22.96;100.00
6599;BME280;3335;43.198;27.918;2022-08-02T01:47:04;152960.19;;;22.90;100.00
6599;BME280;3335;43.198;27.918;2022-08-02T01:49:33;152955.13;;;22.88;100.00
6599;BME280;3335;43.198;27.918;2022-08-02T01:52:02;152957.66;;;22.89;100.00
6599;BME280;3335;43.198;27.918;2022-08-02T01:54:55;152956.38;;;22.88;100.00
6599;BME280;3335;43.198;27.918;2022-08-02T01:57:23;152942.53;;;22.83;100.00
6599;BME280;3335;43.198;27.918;2022-08-02T01:59:55;152940.00;;;22.82;100.00
6599;BME280;3335;43.198;27.918;2022-08-02T02:02:25;152928.66;;;22.77;100.00
6599;BME280;3335;43.198;27.918;2022-08-02T02:04:53;152947.59;;;22.85;100.00
6599;BME280;3335;43.198;27.918;2022-08-02T02:07:21;152950.06;;;22.86;100.00
6599;BME280;3335;43.198;27.918;2022-08-02T02:09:49;152953.84;;;22.87;100.00
6599;BME280;3335;43.198;27.918;2022-08-02T02:12:17;152934.97;;;22.80;100.00
6599;BME280;3335;43.198;27.918;2022-08-02T02:14:45;152945.06;;;22.84;100.00
6599;BME280;3335;43.198;27.918;2022-08-02T02:17:14;152943.78;;;22.83;100.00
6599;BME280;3335;43.198;27.918;2022-08-02T02:19:43;152942.53;;;22.83;100.00
6599;BME280;3335;43.198;27.918;2022-08-02T02:22:11;152947.59;;;22.85;100.00
6599;BME280;3335;43.198;27.918;2022-08-02T02:24:38;152945.06;;;22.84;100.00
6599;BME280;3335;43.198;27.918;2022-08-02T02:27:05;152956.38;;;22.88;100.00
6599;BME280;3335;43.198;27.918;2022-08-02T02:29:38;152942.53;;;22.83;100.00
6599;BME280;3335;43.198;27.918;2022-08-02T02:32:09;152932.47;;;22.79;100.00
6599;BME280;3335;43.198;27.918;2022-08-02T02:34:42;152931.19;;;22.78;100.00
6599;BME280;3335;43.198;27.918;2022-08-02T02:37:13;152933.72;;;22.79;100.00
6599;BME280;3335;43.198;27.918;2022-08-02T02:39:43;152899.66;;;22.65;100.00
6599;BME280;3335;43.198;27.918;2022-08-02T02:42:13;152907.19;;;22.68;100.00
6599;BME280;3335;43.198;27.918;2022-08-02T02:44:41;152904.69;;;22.67;100.00
6599;BME280;3335;43.198;27.918;2022-08-02T02:47:10;152875.72;;;22.56;100.00
6599;BME280;3335;43.198;27.918;2022-08-02T02:49:42;152861.88;;;22.50;100.00
6599;BME280;3335;43.198;27.918;2022-08-02T02:52:09;152844.22;;;22.43;100.00
6599;BME280;3335;43.198;27.918;2022-08-02T02:54:39;152834.16;;;22.39;100.00
6599;BME280;3335;43.198;27.918;2022-08-02T02:57:07;152819.06;;;22.33;100.00
6599;BME280;3335;43.198;27.918;2022-08-02T02:59:34;152806.47;;;22.28;100.00
6599;BME280;3335;43.198;27.918;2022-08-02T03:02:02;152795.13;;;22.23;100.00
6599;BME280;3335;43.198;27.918;2022-08-02T03:04:30;152787.56;;;22.20;100.00
6599;BME280;3335;43.198;27.918;2022-08-02T03:07:00;152793.88;;;22.23;100.00
6599;BME280;3335;43.198;27.918;2022-08-02T03:09:27;152791.34;;;22.22;100.00
6599;BME280;3335;43.198;27.918;2022-08-02T03:11:54;152786.28;;;22.20;100.00
6599;BME280;3335;43.198;27.918;2022-08-02T03:14:22;152783.81;;;22.19;100.00
6599;BME280;3335;43.198;27.918;2022-08-02T03:16:52;152793.88;;;22.23;100.00
6599;BME280;3335;43.198;27.918;2022-08-02T03:19:21;152802.66;;;22.27;100.00
6599;BME280;3335;43.198;27.918;2022-08-02T03:21:49;152801.41;;;22.26;100.00
6599;BME280;3335;43.198;27.918;2022-08-02T03:24:17;152801.41;;;22.26;100.00
6599;BME280;3335;43.198;27.918;2022-08-02T03:26:44;152808.94;;;22.29;100.00
6599;BME280;3335;43.198;27.918;2022-08-02T03:29:11;152798.88;;;22.25;100.00
6599;BME280;3335;43.198;27.918;2022-08-02T03:31:40;152805.19;;;22.28;100.00
6599;BME280;3335;43.198;27.918;2022-08-02T03:34:09;152793.88;;;22.23;100.00
6599;BME280;3335;43.198;27.918;2022-08-02T03:36:36;152796.34;;;22.24;100.00
6599;BME280;3335;43.198;27.918;2022-08-02T03:39:05;152516.81;;;21.12;100.00
6599;BME280;3335;43.198;27.918;2022-08-02T03:41:35;152798.88;;;22.25;100.00
6599;BME280;3335;43.198;27.918;2022-08-02T03:44:03;152797.63;;;22.24;100.00
6599;BME280;3335;43.198;27.918;2022-08-02T03:46:31;152786.28;;;22.20;100.00
6599;BME280;3335;43.198;27.918;2022-08-02T03:48:59;152786.28;;;22.20;100.00
6599;BME280;3335;43.198;27.918;2022-08-02T03:51:28;152788.81;;;22.21;100.00
6599;BME280;3335;43.198;27.918;2022-08-02T03:53:55;152781.28;;;22.18;100.00
6599;BME280;3335;43.198;27.918;2022-08-02T03:56:22;152780.00;;;22.17;100.00
6599;BME280;3335;43.198;27.918;2022-08-02T03:59:04;152786.28;;;22.20;100.00
6599;BME280;3335;43.198;27.918;2022-08-02T04:01:31;152781.28;;;22.18;100.00
6599;BME280;3335;43.198;27.918;2022-08-02T04:03:58;152788.81;;;22.21;100.00
6599;BME280;3335;43.198;27.918;2022-08-02T04:06:25;152796.34;;;22.24;100.00
6599;BME280;3335;43.198;27.918;2022-08-02T04:08:51;152746.00;;;22.04;100.00
6599;BME280;3335;43.198;27.918;2022-08-02T04:11:18;152803.94;;;22.27;100.00
6599;BME280;3335;43.198;27.918;2022-08-02T04:14:01;152788.81;;;22.21;100.00
6599;BME280;3335;43.198;27.918;2022-08-02T04:16:33;152811.47;;;22.30;100.00
6599;BME280;3335;43.198;27.918;2022-08-02T04:19:04;152816.53;;;22.32;100.00
6599;BME280;3335;43.198;27.918;2022-08-02T04:21:35;152811.47;;;22.30;100.00
6599;BME280;3335;43.198;27.918;2022-08-02T04:24:03;152744.75;;;22.03;100.00
6599;BME280;3335;43.198;27.918;2022-08-02T04:26:32;152821.53;;;22.34;100.00
6599;BME280;3335;43.198;27.918;2022-08-02T04:29:01;152821.53;;;22.34;100.00
6599;BME280;3335;43.198;27.918;2022-08-02T04:31:28;152830.41;;;22.38;100.00
6599;BME280;3335;43.198;27.918;2022-08-02T04:33:56;152831.63;;;22.38;100.00
6599;BME280;3335;43.198;27.918;2022-08-02T04:36:23;152835.41;;;22.40;100.00
6599;BME280;3335;43.198;27.918;2022-08-02T04:38:50;152844.22;;;22.43;100.00
6599;BME280;3335;43.198;27.918;2022-08-02T04:41:17;152846.75;;;22.44;100.00
6599;BME280;3335;43.198;27.918;2022-08-02T04:43:44;152851.78;;;22.46;100.00
6599;BME280;3335;43.198;27.918;2022-08-02T04:46:12;152864.41;;;22.51;100.00
6599;BME280;3335;43.198;27.918;2022-08-02T04:48:39;152866.88;;;22.52;100.00
6599;BME280;3335;43.198;27.918;2022-08-02T04:51:06;152861.88;;;22.50;100.00
6599;BME280;3335;43.198;27.918;2022-08-02T04:53:33;152874.47;;;22.55;100.00
6599;BME280;3335;43.198;27.918;2022-08-02T04:56:00;152874.47;;;22.55;100.00
6599;BME280;3335;43.198;27.918;2022-08-02T04:58:27;152887.06;;;22.60;100.00
6599;BME280;3335;43.198;27.918;2022-08-02T05:00:54;152892.06;;;22.62;100.00
6599;BME280;3335;43.198;27.918;2022-08-02T05:03:22;152889.59;;;22.61;100.00
6599;BME280;3335;43.198;27.918;2022-08-02T05:05:49;152887.06;;;22.60;100.00
6599;BME280;3335;43.198;27.918;2022-08-02T05:08:16;152907.19;;;22.68;100.00
6599;BME280;3335;43.198;27.918;2022-08-02T05:10:43;152855.53;;;22.48;100.00
6599;BME280;3335;43.198;27.918;2022-08-02T05:13:10;152863.13;;;22.51;100.00
6599;BME280;3335;43.198;27.918;2022-08-02T05:15:37;152904.69;;;22.67;100.00
6599;BME280;3335;43.198;27.918;2022-08-02T05:18:04;152912.31;;;22.71;100.00
6599;BME280;3335;43.198;27.918;2022-08-02T05:20:32;152922.38;;;22.75;100.00
6599;BME280;3335;43.198;27.918;2022-08-02T05:22:59;152937.50;;;22.81;100.00
6599;BME280;3335;43.198;27.918;2022-08-02T05:25:27;152932.47;;;22.79;100.00
6599;BME280;3335;43.198;27.918;2022-08-02T05:27:54;152909.72;;;22.69;100.00
6599;BME280;3335;43.198;27.918;2022-08-02T05:30:21;152924.91;;;22.76;100.00
6599;BME280;3335;43.198;27.918;2022-08-02T05:32:50;152919.84;;;22.74;100.00
6599;BME280;3335;43.198;27.918;2022-08-02T05:35:19;152928.66;;;22.77;100.00
6599;BME280;3335;43.198;27.918;2022-08-02T05:37:49;152932.47;;;22.79;100.00
6599;BME280;3335;43.198;27.918;2022-08-02T05:40:17;152940.00;;;22.82;100.00
6599;BME280;3335;43.198;27.918;2022-08-02T05:42:44;152960.19;;;22.90;100.00
6599;BME280;3335;43.198;27.918;2022-08-02T05:45:11;152974.00;;;22.95;100.00
6599;BME280;3335;43.198;27.918;2022-08-02T05:47:38;152980.34;;;22.98;100.00
6599;BME280;3335;43.198;27.918;2022-08-02T05:50:07;152975.28;;;22.96;100.00
6599;BME280;3335;43.198;27.918;2022-08-02T05:52:42;152992.94;;;23.03;100.00
6599;BME280;3335;43.198;27.918;2022-08-02T05:55:15;152992.94;;;23.03;100.00
6599;BME280;3335;43.198;27.918;2022-08-02T05:57:49;153050.88;;;23.26;100.00
6599;BME280;3335;43.198;27.918;2022-08-02T06:00:18;153073.56;;;23.35;100.00
6599;BME280;3335;43.198;27.918;2022-08-02T06:03:00;153118.97;;;23.53;100.00
6599;BME280;3335;43.198;27.918;2022-08-02T06:05:33;153153.00;;;23.67;100.00
6599;BME280;3335;43.198;27.918;2022-08-02T06:08:02;153197.16;;;23.85;100.00
6599;BME280;3335;43.198;27.918;2022-08-02T06:10:36;153238.72;;;24.02;100.00
6599;BME280;3335;43.198;27.918;2022-08-02T06:13:07;153250.06;;;24.06;100.00
6599;BME280;3335;43.198;27.918;2022-08-02T06:15:36;153257.66;;;24.09;100.00
6599;BME280;3335;43.198;27.918;2022-08-02T06:18:04;153263.94;;;24.12;100.00
6599;BME280;3335;43.198;27.918;2022-08-02T06:20:32;153277.88;;;24.17;100.00
6599;BME280;3335;43.198;27.918;2022-08-02T06:23:02;153275.34;;;24.16;100.00
6599;BME280;3335;43.198;27.918;2022-08-02T06:25:31;153289.22;;;24.22;100.00
6599;BME280;3335;43.198;27.918;2022-08-02T06:28:01;153299.31;;;24.26;100.00
6599;BME280;3335;43.198;27.918;2022-08-02T06:30:30;153060.97;;;23.30;100.00
6599;BME280;3335;43.198;27.918;2022-08-02T06:32:58;153327.06;;;24.37;100.00
6599;BME280;3335;43.198;27.918;2022-08-02T06:35:33;153357.31;;;24.49;100.00
6599;BME280;3335;43.198;27.918;2022-08-02T06:38:01;153386.31;;;24.61;100.00
6599;BME280;3335;43.198;27.918;2022-08-02T06:40:31;153419.09;;;24.74;100.00
6599;BME280;3335;43.198;27.918;2022-08-02T06:43:10;153434.25;;;24.80;100.00
6599;BME280;3335;43.198;27.918;2022-08-02T06:45:38;153451.94;;;24.87;100.00
6599;BME280;3335;43.198;27.918;2022-08-02T06:48:05;153477.19;;;24.97;100.00
6599;BME280;3335;43.198;27.918;2022-08-02T06:50:33;153497.34;;;25.05;100.00
6599;BME280;3335;43.198;27.918;2022-08-02T06:53:02;153532.66;;;25.19;100.00
6599;BME280;3335;43.198;27.918;2022-08-02T06:55:29;153565.50;;;25.33;100.00
6599;BME280;3335;43.198;27.918;2022-08-02T06:57:56;153585.69;;;25.41;100.00
6599;BME280;3335;43.198;27.918;2022-08-02T07:00:26;153610.91;;;25.51;100.00
6599;BME280;3335;43.198;27.918;2022-08-02T07:02:53;153638.69;;;25.62;100.00
6599;BME280;3335;43.198;27.918;2022-08-02T07:05:20;153646.31;;;25.65;100.00
6599;BME280;3335;43.198;27.918;2022-08-02T07:07:47;153653.84;;;25.68;100.00
6599;BME280;3335;43.198;27.918;2022-08-02T07:10:15;153653.84;;;25.68;100.00
6599;BME280;3335;43.198;27.918;2022-08-02T07:12:42;153696.75;;;25.85;100.00
6599;BME280;3335;43.198;27.918;2022-08-02T07:15:09;153704.34;;;25.88;100.00
6599;BME280;3335;43.198;27.918;2022-08-02T07:17:38;153727.06;;;25.97;100.00
6599;BME280;3335;43.198;27.918;2022-08-02T07:20:06;153751.03;;;26.07;100.00
6599;BME280;3335;43.198;27.918;2022-08-02T07:22:34;153757.34;;;26.09;100.00
6599;BME280;3335;43.198;27.918;2022-08-02T07:25:01;153767.44;;;26.13;100.00
6599;BME280;3335;43.198;27.918;2022-08-02T07:27:28;153787.69;;;26.22;100.00
6599;BME280;3335;43.198;27.918;2022-08-02T07:29:55;153804.09;;;26.28;100.00
6599;BME280;3335;43.198;27.918;2022-08-02T07:32:24;153527.66;;;25.17;100.00
6599;BME280;3335;43.198;27.918;2022-08-02T07:34:54;153835.69;;;26.41;100.00
6599;BME280;3335;43.198;27.918;2022-08-02T07:37:24;153838.22;;;26.42;100.00
6599;BME280;3335;43.198;27.918;2022-08-02T07:39:53;153871.03;;;26.55;100.00
6599;BME280;3335;43.198;27.918;2022-08-02T07:42:21;153881.13;;;26.59;100.00
6599;BME280;3335;43.198;27.918;2022-08-02T07:44:48;153896.28;;;26.65;100.00
6599;BME280;3335;43.198;27.918;2022-08-02T07:47:15;153903.84;;;26.68;100.00
6599;BME280;3335;43.198;27.918;2022-08-02T07:49:46;153917.75;;;26.74;100.00
6599;BME280;3335;43.198;27.918;2022-08-02T07:52:17;153929.13;;;26.78;100.00
6599;BME280;3335;43.198;27.918;2022-08-02T07:54:45;153950.63;;;26.87;100.00
6599;BME280;3335;43.198;27.918;2022-08-02T07:57:12;153939.22;;;26.82;100.00
6599;BME280;3335;43.198;27.918;2022-08-02T07:59:38;153956.97;;;26.89;100.00
6599;BME280;3335;43.198;27.918;2022-08-02T13:12:17;154786.41;;;30.21;78.78
6599;BME280;3335;43.198;27.918;2022-08-02T13:14:43;154847.19;;;30.46;76.74
6599;BME280;3335;43.198;27.918;2022-08-02T13:17:10;154857.31;;;30.50;75.27
6599;BME280;3335;43.198;27.918;2022-08-02T13:19:37;154943.38;;;30.84;74.58
6599;BME280;3335;43.198;27.918;2022-08-02T13:22:05;155018.06;;;31.14;74.48
6599;BME280;3335;43.198;27.918;2022-08-02T13:24:32;155092.78;;;31.44;70.85
6599;BME280;3335;43.198;27.918;2022-08-02T13:27:00;155166.28;;;31.73;68.99
6599;BME280;3335;43.198;27.918;2022-08-02T13:29:28;155161.19;;;31.71;66.39
6599;BME280;3335;43.198;27.918;2022-08-02T13:31:55;155115.56;;;31.53;66.87
6599;BME280;3335;43.198;27.918;2022-08-02T13:34:22;154961.06;;;30.91;64.52
6599;BME280;3335;43.198;27.918;2022-08-02T13:36:49;154937.03;;;30.81;65.32
6599;BME280;3335;43.198;27.918;2022-08-02T13:39:16;154918.06;;;30.74;67.59
6599;BME280;3335;43.198;27.918;2022-08-02T13:41:45;154909.16;;;30.70;69.88
6599;BME280;3335;43.198;27.918;2022-08-02T13:44:12;154869.97;;;30.55;74.91
6599;BME280;3335;43.198;27.918;2022-08-02T13:46:40;154892.75;;;30.64;75.58
6599;BME280;3335;43.198;27.918;2022-08-02T13:49:07;154968.66;;;30.94;74.49
6599;BME280;3335;43.198;27.918;2022-08-02T13:51:34;155034.53;;;31.20;72.52
6599;BME280;3335;43.198;27.918;2022-08-02T13:54:01;155082.66;;;31.40;68.56
6599;BME280;3335;43.198;27.918;2022-08-02T13:56:28;155110.47;;;31.51;68.88
6599;BME280;3335;43.198;27.918;2022-08-02T13:58:55;155115.56;;;31.53;66.87
6599;BME280;3335;43.198;27.918;2022-08-02T14:01:23;155178.94;;;31.78;65.82
6599;BME280;3335;43.198;27.918;2022-08-02T14:03:51;155282.81;;;32.20;63.46
6599;BME280;3335;43.198;27.918;2022-08-02T14:06:20;155535.03;;;33.20;58.62
6599;BME280;3335;43.198;27.918;2022-08-02T14:08:47;155651.66;;;33.67;58.02
6599;BME280;3335;43.198;27.918;2022-08-02T14:11:15;155777.13;;;34.17;57.21
6599;BME280;3335;43.198;27.918;2022-08-02T14:13:42;155985.22;;;35.00;52.34
6599;BME280;3335;43.198;27.918;2022-08-02T14:16:09;156089.28;;;35.41;50.37
6599;BME280;3335;43.198;27.918;2022-08-02T14:18:36;155888.78;;;34.61;50.66
6599;BME280;3335;43.198;27.918;2022-08-02T14:21:04;155548.97;;;33.26;53.66
6599;BME280;3335;43.198;27.918;2022-08-02T14:23:31;155437.41;;;32.81;56.17
6599;BME280;3335;43.198;27.918;2022-08-02T14:25:58;155381.63;;;32.59;56.88
6599;BME280;3335;43.198;27.918;2022-08-02T14:28:25;155351.19;;;32.47;57.12
6599;BME280;3335;43.198;27.918;2022-08-02T14:30:52;155308.16;;;32.30;57.51
6599;BME280;3335;43.198;27.918;2022-08-02T14:33:19;155216.94;;;31.93;59.48
6599;BME280;3335;43.198;27.918;2022-08-02T14:35:46;155185.25;;;31.81;59.60
6599;BME280;3335;43.198;27.918;2022-08-02T14:38:14;155133.34;;;31.60;61.80
6599;BME280;3335;43.198;27.918;2022-08-02T14:40:43;154840.78;;;30.43;61.10
6599;BME280;3335;43.198;27.918;2022-08-02T14:43:10;155029.47;;;31.18;63.02
6599;BME280;3335;43.198;27.918;2022-08-02T14:45:57;154976.28;;;30.97;86.41
6599;BME280;3335;43.198;27.918;2022-08-02T14:48:24;154919.34;;;30.74;98.75
6599;BME280;3335;43.198;27.918;2022-08-02T14:50:51;154971.19;;;30.95;100.00
6599;BME280;3335;43.198;27.918;2022-08-02T14:53:19;154895.28;;;30.65;100.00
6599;BME280;3335;43.198;27.918;2022-08-02T14:55:46;154829.41;;;30.38;100.00
6599;BME280;3335;43.198;27.918;2022-08-02T14:58:13;154831.94;;;30.39;100.00
6599;BME280;3335;43.198;27.918;2022-08-02T15:00:40;154669.94;;;29.75;100.00
6599;BME280;3335;43.198;27.918;2022-08-02T15:03:08;154661.09;;;29.71;100.00
6599;BME280;3335;43.198;27.918;2022-08-02T15:05:35;154532.06;;;29.20;100.00
6599;BME280;3335;43.198;27.918;2022-08-02T15:08:02;154545.97;;;29.25;100.00
6599;BME280;3335;43.198;27.918;2022-08-02T15:10:31;154401.78;;;28.67;100.00
6599;BME280;3335;43.198;27.918;2022-08-02T15:12:58;154410.66;;;28.71;100.00
6599;BME280;3335;43.198;27.918;2022-08-02T15:15:25;154452.41;;;28.88;100.00
6599;BME280;3335;43.198;27.918;2022-08-02T15:17:51;154430.94;;;28.79;100.00
6599;BME280;3335;43.198;27.918;2022-08-02T15:20:18;154406.84;;;28.69;100.00
6599;BME280;3335;43.198;27.918;2022-08-02T15:22:45;154387.88;;;28.62;100.00
6599;BME280;3335;43.198;27.918;2022-08-02T15:25:12;154391.69;;;28.63;100.00
6599;BME280;3335;43.198;27.918;2022-08-02T15:27:42;154333.53;;;28.40;100.00
6599;BME280;3335;43.198;27.918;2022-08-02T15:30:09;154310.78;;;28.31;100.00
6599;BME280;3335;43.198;27.918;2022-08-02T15:32:37;154334.81;;;28.41;100.00
6599;BME280;3335;43.198;27.918;2022-08-02T15:35:05;154349.94;;;28.47;100.00
6599;BME280;3335;43.198;27.918;2022-08-02T15:37:32;154322.16;;;28.36;100.00
6599;BME280;3335;43.198;27.918;2022-08-02T15:39:58;154299.41;;;28.26;100.00
6599;BME280;3335;43.198;27.918;2022-08-02T15:42:25;154227.34;;;27.98;100.00
6599;BME280;3335;43.198;27.918;2022-08-02T15:44:54;154130.03;;;27.59;100.00
6599;BME280;3335;43.198;27.918;2022-08-02T15:47:20;154126.22;;;27.57;100.00
6599;BME280;3335;43.198;27.918;2022-08-02T15:49:47;154155.31;;;27.69;100.00
6599;BME280;3335;43.198;27.918;2022-08-02T15:52:14;154080.72;;;27.39;100.00
6599;BME280;3335;43.198;27.918;2022-08-02T15:54:41;154148.97;;;27.66;100.00
6599;BME280;3335;43.198;27.918;2022-08-02T15:57:08;154131.31;;;27.59;100.00
6599;BME280;3335;43.198;27.918;2022-08-02T15:59:35;154136.31;;;27.61;100.00
6599;BME280;3335;43.198;27.918;2022-08-02T16:02:03;154111.09;;;27.51;100.00
6599;BME280;3335;43.198;27.918;2022-08-02T16:04:31;154111.09;;;27.51;100.00
6599;BME280;3335;43.198;27.918;2022-08-02T16:06:58;154123.69;;;27.56;100.00
6599;BME280;3335;43.198;27.918;2022-08-02T16:09:25;154106.03;;;27.49;100.00
6599;BME280;3335;43.198;27.918;2022-08-02T16:11:51;154092.06;;;27.43;100.00
6599;BME280;3335;43.198;27.918;2022-08-02T16:14:18;154063.03;;;27.32;100.00
6599;BME280;3335;43.198;27.918;2022-08-02T16:16:45;154037.78;;;27.22;100.00
6599;BME280;3335;43.198;27.918;2022-08-02T16:19:14;154017.53;;;27.14;100.00
6599;BME280;3335;43.198;27.918;2022-08-02T16:21:41;154007.44;;;27.10;100.00
6599;BME280;3335;43.198;27.918;2022-08-02T16:24:08;153998.63;;;27.06;100.00
6599;BME280;3335;43.198;27.918;2022-08-02T16:26:35;154003.69;;;27.08;100.00
6599;BME280;3335;43.198;27.918;2022-08-02T16:29:02;153984.72;;;27.01;100.00
6599;BME280;3335;43.198;27.918;2022-08-02T16:31:29;153970.81;;;26.95;100.00
6599;BME280;3335;43.198;27.918;2022-08-02T16:33:56;153951.88;;;26.87;100.00
6599;BME280;3335;43.198;27.918;2022-08-02T16:36:25;153780.06;;;26.19;100.00
6599;BME280;3335;43.198;27.918;2022-08-02T16:38:53;153916.47;;;26.73;100.00
6599;BME280;3335;43.198;27.918;2022-08-02T16:41:21;153897.56;;;26.66;100.00
6599;BME280;3335;43.198;27.918;2022-08-02T16:43:48;153889.94;;;26.63;100.00
6599;BME280;3335;43.198;27.918;2022-08-02T16:46:15;153873.56;;;26.56;100.00
6599;BME280;3335;43.198;27.918;2022-08-02T16:48:42;153862.22;;;26.51;100.00
6599;BME280;3335;43.198;27.918;2022-08-02T16:51:09;153841.97;;;26.43;100.00
6599;BME280;3335;43.198;27.918;2022-08-02T16:53:37;153823.06;;;26.36;100.00
6599;BME280;3335;43.198;27.918;2022-08-02T16:56:06;153800.34;;;26.27;100.00
6599;BME280;3335;43.198;27.918;2022-08-02T16:58:33;153792.72;;;26.24;100.00
6599;BME280;3335;43.198;27.918;2022-08-02T17:00:59;153785.13;;;26.21;100.00
6599;BME280;3335;43.198;27.918;2022-08-02T17:03:26;153747.25;;;26.05;100.00
6599;BME280;3335;43.198;27.918;2022-08-02T17:05:53;153752.31;;;26.07;100.00
6599;BME280;3335;43.198;27.918;2022-08-02T17:08:20;153739.69;;;26.02;100.00
6599;BME280;3335;43.198;27.918;2022-08-02T17:10:49;153730.88;;;25.99;100.00
6599;BME280;3335;43.198;27.918;2022-08-02T17:13:15;153716.97;;;25.93;100.00
6599;BME280;3335;43.198;27.918;2022-08-02T17:15:42;153706.88;;;25.89;100.00
6599;BME280;3335;43.198;27.918;2022-08-02T17:18:09;153661.41;;;25.71;100.00
6599;BME280;3335;43.198;27.918;2022-08-02T17:20:38;153687.91;;;25.82;100.00
6599;BME280;3335;43.198;27.918;2022-08-02T17:23:05;153672.75;;;25.76;100.00
6599;BME280;3335;43.198;27.918;2022-08-02T17:25:33;153663.94;;;25.72;100.00
6599;BME280;3335;43.198;27.918;2022-08-02T17:28:01;153656.38;;;25.69;100.00
6599;BME280;3335;43.198;27.918;2022-08-02T17:30:28;153648.84;;;25.66;100.00
6599;BME280;3335;43.198;27.918;2022-08-02T17:32:55;153646.31;;;25.65;100.00
6599;BME280;3335;43.198;27.918;2022-08-02T17:35:22;153638.69;;;25.62;100.00
6599;BME280;3335;43.198;27.918;2022-08-02T17:37:49;153631.13;;;25.59;100.00
6599;BME280;3335;43.198;27.918;2022-08-02T17:40:16;153618.47;;;25.54;100.00
6599;BME280;3335;43.198;27.918;2022-08-02T17:42:43;153613.41;;;25.52;100.00
6599;BME280;3335;43.198;27.918;2022-08-02T17:45:11;153605.84;;;25.49;100.00
6599;BME280;3335;43.198;27.918;2022-08-02T17:47:38;153613.41;;;25.52;100.00
6599;BME280;3335;43.198;27.918;2022-08-02T17:50:06;153613.41;;;25.52;100.00
6599;BME280;3335;43.198;27.918;2022-08-02T17:52:33;153607.13;;;25.49;100.00
6599;BME280;3335;43.198;27.918;2022-08-02T17:54:59;153591.97;;;25.43;100.00
6599;BME280;3335;43.198;27.918;2022-08-02T17:57:27;153597.03;;;25.45;100.00
6599;BME280;3335;43.198;27.918;2022-08-02T17:59:55;153595.75;;;25.45;100.00
6599;BME280;3335;43.198;27.918;2022-08-02T18:02:24;153588.22;;;25.42;100.00
6599;BME280;3335;43.198;27.918;2022-08-02T18:04:51;153585.69;;;25.41;100.00
6599;BME280;3335;43.198;27.918;2022-08-02T18:07:18;153583.16;;;25.40;100.00